Brasstown, North Carolina
Current Conditions -  °F | °C
As of 5:15 AM on Saturday 01 Nov 2014 (Local Time) from KRHP Reporting Station
Overcast Overcast  
Wind Chill: 33°   Ceiling: 2800
Heat Index: 33°   Visibility: 10mi
Dew Point: 31°   Wind: 3mph
Humidity: 91%   Direction: 150°SSE
Pressure: 29.87"   Gusts: NA
Location:  35.04°N, 83.96°W
Report Text: KRHP 010915Z AUTO 15003KT 10SM BKN028 BKN047 OVC110 01/00 A2987 RMK AO2 T00081005
Loading
Personal Weather Stations






























Interactive Weather Map
Tropical Storm Tracking
New forecast layout! Learn more

10-Day Weather Forecast

Advertisements
Track Severe Weather on mobile